createdAt,value
2023-03-14T00:01:22.622Z,7.38
2023-03-14T00:03:50.967Z,8.48
2023-03-14T00:06:19.725Z,7.18
2023-03-14T00:08:48.689Z,7.85
2023-03-14T00:11:19.252Z,10.25
2023-03-14T00:13:53.320Z,3.63
2023-03-14T00:16:21.999Z,5.97
2023-03-14T00:18:49.755Z,4.30
2023-03-14T00:21:17.356Z,6.43
2023-03-14T00:23:45.143Z,4.88
2023-03-14T00:26:15.419Z,8.32
2023-03-14T00:28:44.396Z,6.38
2023-03-14T00:31:15.961Z,9.75
2023-03-14T00:33:44.744Z,7.55
2023-03-14T00:36:17.495Z,5.50
2023-03-14T00:38:48.110Z,3.83
2023-03-14T00:41:23.298Z,2.70
2023-03-14T00:43:51.648Z,5.80
2023-03-14T00:46:19.382Z,1.02
2023-03-14T00:48:47.367Z,2.30
2023-03-14T00:51:16.304Z,3.97
2023-03-14T00:53:45.360Z,5.88
2023-03-14T00:56:16.311Z,5.05
2023-03-14T00:58:44.106Z,5.72
2023-03-14T01:01:20.449Z,3.60
2023-03-14T01:03:52.113Z,0.40
2023-03-14T01:06:25.328Z,2.75
2023-03-14T01:08:53.599Z,2.70
2023-03-14T01:11:30.292Z,4.20
2023-03-14T01:13:59.600Z,3.72
2023-03-14T01:16:32.507Z,9.35
2023-03-14T01:19:03.184Z,0.82
2023-03-14T01:21:34.083Z,2.20
2023-03-14T01:24:03.571Z,3.42
2023-03-14T01:26:33.615Z,2.40
2023-03-14T01:29:02.667Z,2.53
2023-03-14T01:31:30.721Z,3.03
2023-03-14T01:33:58.430Z,4.47
2023-03-14T01:36:25.972Z,2.28
2023-03-14T01:38:53.779Z,1.30
2023-03-14T01:41:24.944Z,3.40
2023-03-14T01:43:54.567Z,2.00
2023-03-14T01:46:30.344Z,3.13
2023-03-14T01:49:29.171Z,4.50
2023-03-14T01:52:42.969Z,0.80
2023-03-14T01:55:15.096Z,1.65
2023-03-14T01:57:51.602Z,1.02
2023-03-14T02:00:24.072Z,3.03
2023-03-14T02:03:07.895Z,1.42
2023-03-14T02:05:39.084Z,1.38
2023-03-14T02:08:20.565Z,0.70
2023-03-14T02:10:52.140Z,2.13
2023-03-14T02:16:17.538Z,2.67
2023-03-14T02:19:11.133Z,2.22
2023-03-14T02:22:11.560Z,1.40
2023-03-14T02:25:05.715Z,3.10
2023-03-14T02:27:34.613Z,3.05
2023-03-14T02:30:15.029Z,1.00
2023-03-14T02:32:52.991Z,1.38
2023-03-14T02:35:23.986Z,0.50
2023-03-14T02:37:54.600Z,1.05
2023-03-14T02:40:23.847Z,0.90
2023-03-14T02:42:53.358Z,1.20
2023-03-14T02:45:24.179Z,0.60
2023-03-14T02:48:00.847Z,0.60
2023-03-14T02:50:34.397Z,0.73
2023-03-14T02:53:02.900Z,1.10
2023-03-14T02:55:31.070Z,1.17
2023-03-14T02:58:02.423Z,4.97
2023-03-14T03:00:31.634Z,1.77
2023-03-14T03:02:59.603Z,0.90
2023-03-14T03:05:27.327Z,2.00
2023-03-14T03:07:54.897Z,1.58
2023-03-14T03:10:23.614Z,1.27
2023-03-14T03:12:52.530Z,1.90
2023-03-14T03:15:24.693Z,4.18
2023-03-14T03:17:52.981Z,2.30
2023-03-14T03:20:21.709Z,3.50
2023-03-14T03:22:50.858Z,5.07
2023-03-14T03:25:18.670Z,2.30
2023-03-14T03:27:47.412Z,1.60
2023-03-14T03:30:18.906Z,4.82
2023-03-14T03:32:48.012Z,1.50
2023-03-14T03:35:15.749Z,2.65
2023-03-14T03:37:43.378Z,1.80
2023-03-14T03:40:11.754Z,4.93
2023-03-14T03:42:39.520Z,1.63
2023-03-14T03:45:10.421Z,6.35
2023-03-14T03:47:44.305Z,1.65
2023-03-14T03:50:12.871Z,2.75
2023-03-14T03:52:40.411Z,2.63
2023-03-14T03:55:08.702Z,0.85
2023-03-14T03:57:36.261Z,0.73
2023-03-14T04:00:06.742Z,3.10
2023-03-14T04:02:42.046Z,1.65
2023-03-14T04:05:13.872Z,1.70
2023-03-14T04:07:47.752Z,1.95
2023-03-14T04:10:19.587Z,2.15
2023-03-14T04:13:09.844Z,2.92
2023-03-14T04:15:39.665Z,2.13
2023-03-14T04:18:16.376Z,2.10
2023-03-14T04:20:45.429Z,1.65
2023-03-14T04:23:13.603Z,3.90
2023-03-14T04:25:41.156Z,2.80
2023-03-14T04:28:12.656Z,2.63
2023-03-14T04:30:40.240Z,3.00
2023-03-14T04:33:13.725Z,1.40
2023-03-14T04:35:47.759Z,1.48
2023-03-14T04:38:17.522Z,1.27
2023-03-14T04:40:47.192Z,4.07
2023-03-14T04:43:16.456Z,1.30
2023-03-14T04:45:51.632Z,4.15
2023-03-14T04:48:20.142Z,5.45
2023-03-14T04:50:49.059Z,3.00
2023-03-14T04:53:18.670Z,3.80
2023-03-14T04:55:52.489Z,5.45
2023-03-14T04:58:21.987Z,5.53
2023-03-14T05:00:51.018Z,1.17
2023-03-14T05:03:45.584Z,5.50
2023-03-14T05:06:22.822Z,3.13
2023-03-14T05:09:11.003Z,1.92
2023-03-14T05:11:58.975Z,4.30
2023-03-14T05:14:45.276Z,2.00
2023-03-14T05:17:33.341Z,3.60
2023-03-14T05:20:22.683Z,3.05
2023-03-14T05:23:09.194Z,3.60
2023-03-14T05:28:35.339Z,3.63
2023-03-14T05:31:26.038Z,2.60
2023-03-14T05:34:32.442Z,2.45
2023-03-14T05:37:12.600Z,1.23
2023-03-14T05:40:00.169Z,2.55
2023-03-14T05:42:38.398Z,4.65
2023-03-14T05:45:10.314Z,3.25
2023-03-14T05:47:55.994Z,4.38
2023-03-14T05:50:46.842Z,2.53
2023-03-14T05:53:30.427Z,4.22
2023-03-14T05:56:16.976Z,4.65
2023-03-14T05:59:17.198Z,3.00
2023-03-14T06:02:14.422Z,5.60
2023-03-14T06:07:22.110Z,4.65
2023-03-14T06:09:50.323Z,7.00
2023-03-14T06:12:20.239Z,9.02
2023-03-14T06:14:48.154Z,10.40
2023-03-14T06:17:15.938Z,13.23
2023-03-14T06:19:51.729Z,7.78
2023-03-14T06:22:20.648Z,12.07
2023-03-14T06:24:48.943Z,10.07
2023-03-14T06:27:18.523Z,9.57
2023-03-14T06:29:46.415Z,12.02
2023-03-14T06:32:14.114Z,11.82
2023-03-14T06:34:43.079Z,12.98
2023-03-14T06:37:23.592Z,12.13
2023-03-14T06:39:51.161Z,14.60
2023-03-14T06:42:42.005Z,9.02
2023-03-14T06:45:12.659Z,6.95
2023-03-14T06:47:40.989Z,10.05
2023-03-14T06:50:10.911Z,8.38
2023-03-14T06:55:10.507Z,9.13
2023-03-14T06:57:41.643Z,7.17
2023-03-14T07:00:13.768Z,15.32
2023-03-14T07:02:43.543Z,9.63
2023-03-14T07:05:24.919Z,9.57
2023-03-14T07:07:53.033Z,14.13
2023-03-14T07:10:21.269Z,11.05
2023-03-14T07:12:49.119Z,19.38
2023-03-14T07:15:19.315Z,15.10
2023-03-14T07:17:52.007Z,12.43
2023-03-14T07:20:23.263Z,9.90
2023-03-14T07:22:51.923Z,15.75
2023-03-14T07:25:31.099Z,15.10
2023-03-14T07:27:58.888Z,12.93
2023-03-14T07:30:26.783Z,10.05
2023-03-14T07:32:56.531Z,9.82
2023-03-14T07:35:34.912Z,10.60
2023-03-14T07:38:02.933Z,16.02
2023-03-14T07:40:37.372Z,8.00
2023-03-14T07:43:07.055Z,19.65
2023-03-14T07:45:50.852Z,11.63
2023-03-14T07:48:18.992Z,12.15
2023-03-14T07:50:51.185Z,14.60
2023-03-14T07:53:22.827Z,10.93
2023-03-14T07:55:55.451Z,12.40
2023-03-14T07:58:28.495Z,10.25
2023-03-14T08:01:00.066Z,13.63
2023-03-14T08:03:35.637Z,9.77
2023-03-14T08:06:03.529Z,7.03
2023-03-14T08:08:31.194Z,14.68
2023-03-14T08:11:05.025Z,20.92
2023-03-14T08:13:35.305Z,11.30
2023-03-14T08:16:03.934Z,8.98
2023-03-14T08:18:32.090Z,19.75
2023-03-14T08:21:00.291Z,16.15
2023-03-14T08:23:31.269Z,16.20
2023-03-14T08:25:59.064Z,20.88
2023-03-14T08:28:31.553Z,22.67
2023-03-14T08:31:03.000Z,11.00
2023-03-14T08:33:31.616Z,11.88
2023-03-14T08:36:01.895Z,12.18
2023-03-14T08:38:30.456Z,17.20
2023-03-14T08:41:00.350Z,13.80
2023-03-14T08:43:35.493Z,16.80
2023-03-14T08:46:03.861Z,18.15
2023-03-14T08:48:31.643Z,17.70
2023-03-14T08:51:13.771Z,22.85
2023-03-14T08:53:42.134Z,19.00
2023-03-14T08:56:11.231Z,15.55
2023-03-14T08:58:39.179Z,25.10
2023-03-14T09:01:08.846Z,12.45
2023-03-14T09:03:36.918Z,15.93
2023-03-14T09:06:06.881Z,20.33
2023-03-14T09:08:35.549Z,13.40
2023-03-14T09:13:32.011Z,12.70
2023-03-14T09:15:59.707Z,22.35
2023-03-14T09:18:27.269Z,14.48
2023-03-14T09:20:56.042Z,15.95
2023-03-14T09:23:24.040Z,13.87
2023-03-14T09:25:59.741Z,11.52
2023-03-14T09:28:29.176Z,15.27
2023-03-14T09:30:57.839Z,5.40
2023-03-14T09:33:25.686Z,11.63
2023-03-14T09:35:53.414Z,16.92
2023-03-14T09:38:21.839Z,9.52
2023-03-14T09:40:50.179Z,13.70
2023-03-14T09:43:18.119Z,15.32
2023-03-14T09:45:48.782Z,6.55
2023-03-14T09:48:22.544Z,8.15
2023-03-14T09:50:56.134Z,11.07
2023-03-14T09:53:44.086Z,13.02
2023-03-14T09:56:22.177Z,19.27
2023-03-14T09:58:55.700Z,10.98
2023-03-14T10:01:32.136Z,22.02
2023-03-14T10:04:16.456Z,8.70
2023-03-14T10:06:44.654Z,18.60
2023-03-14T10:09:26.480Z,14.77
2023-03-14T10:12:08.887Z,17.60
2023-03-14T10:14:45.140Z,11.18
2023-03-14T10:17:14.671Z,15.65
2023-03-14T10:19:57.730Z,12.65
2023-03-14T10:22:33.117Z,15.95
2023-03-14T10:25:08.879Z,13.25
2023-03-14T10:27:37.379Z,13.50
2023-03-14T10:30:11.380Z,10.60
2023-03-14T10:32:43.121Z,15.38
2023-03-14T10:35:16.913Z,21.75
2023-03-14T10:38:02.465Z,11.90
2023-03-14T10:40:38.894Z,19.35
2023-03-14T10:43:14.440Z,8.80
2023-03-14T10:45:44.828Z,17.98
2023-03-14T10:48:18.075Z,7.95
2023-03-14T10:51:19.268Z,18.23
2023-03-14T10:54:01.172Z,17.65
2023-03-14T10:56:35.803Z,21.27
2023-03-14T10:59:05.396Z,16.30
2023-03-14T11:01:47.317Z,14.93
2023-03-14T11:04:36.976Z,16.33
2023-03-14T11:07:17.212Z,10.30
2023-03-14T11:10:00.646Z,8.82
2023-03-14T11:12:28.141Z,10.63
2023-03-14T11:15:05.288Z,9.02
2023-03-14T11:17:51.114Z,6.30
2023-03-14T11:20:47.976Z,16.58
2023-03-14T11:23:22.694Z,10.02
2023-03-14T11:26:07.222Z,8.45
2023-03-14T11:28:39.250Z,9.57
2023-03-14T11:31:25.625Z,9.27
2023-03-14T11:34:22.492Z,9.02
2023-03-14T11:37:04.751Z,15.68
2023-03-14T11:39:45.865Z,7.57
2023-03-14T11:42:18.054Z,12.90
2023-03-14T11:44:49.207Z,6.72
2023-03-14T11:47:31.505Z,6.03
2023-03-14T11:50:14.010Z,10.27
2023-03-14T11:52:57.700Z,8.25
2023-03-14T11:55:30.484Z,2.80
2023-03-14T11:58:15.284Z,9.98
2023-03-14T12:00:44.013Z,12.68
2023-03-14T12:03:17.984Z,9.00
2023-03-14T12:06:23.086Z,8.52
2023-03-14T12:09:02.803Z,4.68
2023-03-14T12:11:39.469Z,6.13
2023-03-14T12:14:28.745Z,7.40
2023-03-14T12:17:21.424Z,5.82
2023-03-14T12:20:01.358Z,12.75
2023-03-14T12:22:36.873Z,7.93
2023-03-14T12:25:23.835Z,8.32
2023-03-14T12:27:57.796Z,3.53
2023-03-14T12:30:36.072Z,9.93
2023-03-14T12:33:18.725Z,4.70
2023-03-14T12:35:51.819Z,5.78
2023-03-14T12:38:28.684Z,8.07
2023-03-14T12:41:15.116Z,7.75
2023-03-14T12:43:43.169Z,7.75
2023-03-14T12:46:11.125Z,5.00
2023-03-14T12:48:40.575Z,4.90
2023-03-14T12:51:19.361Z,22.42
2023-03-14T12:54:07.337Z,4.50
2023-03-14T12:57:02.355Z,8.25
2023-03-14T12:59:31.766Z,2.58
2023-03-14T13:02:07.231Z,5.60
2023-03-14T13:04:43.884Z,3.25
2023-03-14T13:07:56.586Z,6.97
2023-03-14T13:10:36.903Z,3.13
2023-03-14T13:13:24.313Z,5.60
2023-03-14T13:16:01.387Z,15.98
2023-03-14T13:18:41.096Z,2.80
2023-03-14T13:21:24.836Z,3.70
2023-03-14T13:24:19.536Z,25.50
2023-03-14T13:26:47.294Z,7.53
2023-03-14T13:29:18.898Z,3.83
2023-03-14T13:31:48.756Z,21.60
2023-03-14T13:34:16.937Z,3.83
2023-03-14T13:36:45.019Z,4.57
2023-03-14T13:39:20.648Z,7.38
2023-03-14T13:41:49.576Z,10.77
2023-03-14T13:44:39.582Z,7.18
2023-03-14T13:47:17.659Z,10.88
2023-03-14T13:49:46.245Z,7.70
2023-03-14T13:52:42.986Z,4.40
2023-03-14T13:55:18.986Z,7.50
2023-03-14T13:57:55.749Z,5.80
2023-03-14T14:00:28.507Z,7.00
2023-03-14T14:02:58.323Z,3.65
2023-03-14T14:05:30.816Z,6.15
2023-03-14T14:07:58.496Z,4.25
2023-03-14T14:10:30.024Z,3.70
2023-03-14T14:13:04.196Z,3.40
2023-03-14T14:15:35.667Z,4.63
2023-03-14T14:18:07.226Z,4.90
2023-03-14T14:20:45.341Z,5.60
2023-03-14T14:23:18.012Z,2.33
2023-03-14T14:25:47.051Z,5.50
2023-03-14T14:28:33.977Z,3.30
2023-03-14T14:31:16.776Z,3.90
2023-03-14T14:34:02.784Z,4.68
2023-03-14T14:36:38.929Z,2.25
2023-03-14T14:39:25.684Z,3.75
2023-03-14T14:41:54.127Z,9.75
2023-03-14T14:44:43.353Z,4.20
2023-03-14T14:47:14.988Z,2.22
2023-03-14T14:49:43.166Z,2.72
2023-03-14T14:52:41.587Z,1.40
2023-03-14T14:55:20.416Z,3.65
2023-03-14T14:57:54.379Z,6.10
2023-03-14T15:00:27.128Z,4.60
2023-03-14T15:03:01.138Z,6.25
2023-03-14T15:05:31.907Z,9.75
2023-03-14T15:07:59.611Z,10.80
2023-03-14T15:10:30.280Z,3.80
2023-03-14T15:12:57.935Z,2.50
2023-03-14T15:15:25.453Z,6.28
2023-03-14T15:17:53.087Z,5.88
2023-03-14T15:20:21.663Z,4.25
2023-03-14T15:22:49.206Z,1.58
2023-03-14T15:25:37.337Z,3.25
2023-03-14T15:28:06.541Z,1.65
2023-03-14T15:30:34.098Z,4.28
2023-03-14T15:33:01.658Z,3.72
2023-03-14T15:35:29.378Z,2.55
2023-03-14T15:37:56.992Z,9.65
2023-03-14T15:40:26.033Z,6.30
2023-03-14T15:42:56.738Z,8.88
2023-03-14T15:45:24.342Z,12.02
2023-03-14T15:47:51.943Z,6.95
2023-03-14T15:50:20.155Z,6.45
2023-03-14T15:52:48.049Z,6.13
2023-03-14T15:55:15.833Z,2.97
2023-03-14T15:57:45.417Z,5.43
2023-03-14T16:00:15.417Z,1.40
2023-03-14T16:02:43.360Z,5.28
2023-03-14T16:05:11.792Z,1.30
2023-03-14T16:07:40.308Z,2.92
2023-03-14T16:10:12.319Z,1.88
2023-03-14T16:12:40.521Z,1.65
2023-03-14T16:15:10.015Z,6.70
2023-03-14T16:17:38.977Z,2.83
2023-03-14T16:20:06.865Z,1.70
2023-03-14T16:22:37.044Z,3.00
2023-03-14T16:25:06.771Z,1.33
2023-03-14T16:27:34.367Z,5.43
2023-03-14T16:30:01.994Z,2.88
2023-03-14T16:32:29.744Z,1.75
2023-03-14T16:34:58.370Z,4.13
2023-03-14T16:37:27.542Z,2.83
2023-03-14T16:40:11.595Z,3.53
2023-03-14T16:45:30.485Z,2.38
2023-03-14T16:47:59.724Z,2.05
2023-03-14T16:50:27.312Z,5.53
2023-03-14T16:52:55.460Z,0.38
2023-03-14T16:55:23.247Z,0.68
2023-03-14T16:57:50.849Z,2.50
2023-03-14T17:00:19.046Z,0.82
2023-03-14T17:02:46.668Z,0.95
2023-03-14T17:05:14.430Z,1.70
2023-03-14T17:07:42.659Z,1.25
2023-03-14T17:10:11.583Z,2.40
2023-03-14T17:12:39.112Z,3.17
2023-03-14T17:15:07.290Z,3.80
2023-03-14T17:17:34.913Z,1.85
2023-03-14T17:20:03.685Z,1.92
2023-03-14T17:22:32.891Z,2.72
2023-03-14T17:25:01.497Z,2.15
2023-03-14T17:27:29.671Z,1.15
2023-03-14T17:30:00.280Z,1.17
2023-03-14T17:32:30.418Z,1.85
2023-03-14T17:34:58.085Z,0.63
2023-03-14T17:37:25.808Z,2.22
2023-03-14T17:39:56.947Z,0.60
2023-03-14T17:42:24.502Z,0.47
2023-03-14T17:44:56.546Z,0.73
2023-03-14T17:47:25.979Z,2.20
2023-03-14T17:49:53.617Z,3.20
2023-03-14T17:52:21.280Z,3.17
2023-03-14T17:54:48.780Z,2.42
2023-03-14T17:57:16.531Z,2.60
2023-03-14T17:59:44.417Z,3.47
2023-03-14T18:02:12.116Z,2.47
2023-03-14T18:04:40.020Z,2.63
2023-03-14T18:07:08.720Z,2.55
2023-03-14T18:09:36.634Z,4.43
2023-03-14T18:12:07.998Z,3.17
2023-03-14T18:14:37.419Z,1.75
2023-03-14T18:17:05.976Z,3.88
2023-03-14T18:19:33.725Z,3.25
2023-03-14T18:22:01.350Z,1.75
2023-03-14T18:24:29.195Z,4.50
2023-03-14T18:26:56.881Z,3.88
2023-03-14T18:29:24.597Z,1.73
2023-03-14T18:31:52.467Z,1.67
2023-03-14T18:34:20.453Z,1.15
2023-03-14T18:36:48.413Z,1.63
2023-03-14T18:39:16.117Z,2.67
2023-03-14T18:41:44.016Z,3.08
2023-03-14T18:44:11.778Z,6.43
2023-03-14T18:46:39.640Z,2.08
2023-03-14T18:49:07.833Z,3.40
2023-03-14T18:51:35.783Z,1.48
2023-03-14T18:54:10.084Z,3.85
2023-03-14T18:56:41.220Z,4.55
2023-03-14T18:59:10.483Z,2.33
2023-03-14T19:01:50.367Z,5.55
2023-03-14T19:04:18.750Z,4.50
2023-03-14T19:06:47.033Z,5.47
2023-03-14T19:09:15.930Z,3.47
2023-03-14T19:11:46.494Z,5.47
2023-03-14T19:14:16.097Z,3.75
2023-03-14T19:16:50.583Z,6.85
2023-03-14T19:19:21.151Z,3.58
2023-03-14T19:21:49.069Z,1.97
2023-03-14T19:24:22.573Z,3.30
2023-03-14T19:26:54.855Z,1.77
2023-03-14T19:29:28.490Z,3.72
2023-03-14T19:31:58.460Z,4.72
2023-03-14T19:34:30.222Z,5.47
2023-03-14T19:36:58.661Z,3.25
2023-03-14T19:39:28.868Z,4.40
2023-03-14T19:41:59.239Z,1.83
2023-03-14T19:44:28.539Z,1.63
2023-03-14T19:46:57.535Z,1.92
2023-03-14T19:49:26.659Z,1.27
2023-03-14T19:51:58.753Z,1.83
2023-03-14T19:54:28.945Z,1.42
2023-03-14T19:57:03.910Z,1.65
2023-03-14T19:59:32.471Z,4.72
2023-03-14T20:02:00.012Z,5.28
2023-03-14T20:04:31.447Z,8.45
2023-03-14T20:07:04.765Z,4.05
2023-03-14T20:09:32.443Z,4.75
2023-03-14T20:12:01.353Z,4.10
2023-03-14T20:14:29.196Z,4.67
2023-03-14T20:16:57.045Z,5.47
2023-03-14T20:19:25.083Z,3.90
2023-03-14T20:21:53.083Z,4.82
2023-03-14T20:24:21.850Z,3.72
2023-03-14T20:26:49.609Z,5.25
2023-03-14T20:29:17.320Z,3.08
2023-03-14T20:31:45.125Z,3.42
2023-03-14T20:34:16.019Z,4.45
2023-03-14T20:36:45.021Z,2.65
2023-03-14T20:39:17.170Z,1.00
2023-03-14T20:41:45.444Z,1.38
2023-03-14T20:44:13.630Z,2.47
2023-03-14T20:46:41.909Z,4.95
2023-03-14T20:49:10.119Z,1.20
2023-03-14T20:51:41.472Z,3.53
2023-03-14T20:54:14.159Z,3.10
2023-03-14T20:56:42.436Z,3.35
2023-03-14T20:59:10.332Z,3.33
2023-03-14T21:01:37.926Z,4.43
2023-03-14T21:04:05.785Z,6.50
2023-03-14T21:06:33.767Z,5.72
2023-03-14T21:09:05.612Z,2.53
2023-03-14T21:11:37.310Z,6.20
2023-03-14T21:14:05.021Z,5.97
2023-03-14T21:16:33.119Z,8.27
2023-03-14T21:19:01.544Z,11.93
2023-03-14T21:21:32.745Z,9.00
2023-03-14T21:24:02.487Z,9.48
2023-03-14T21:26:31.942Z,14.77
2023-03-14T21:29:02.987Z,6.57
2023-03-14T21:31:31.513Z,2.28
2023-03-14T21:33:59.822Z,1.58
2023-03-14T21:36:31.976Z,2.03
2023-03-14T21:39:01.724Z,2.30
2023-03-14T21:43:59.824Z,3.78
2023-03-14T21:46:28.660Z,3.70
2023-03-14T21:49:00.144Z,3.30
2023-03-14T21:51:31.537Z,4.32
2023-03-14T21:53:59.688Z,6.18
2023-03-14T21:56:30.212Z,4.65
2023-03-14T21:59:00.076Z,5.63
2023-03-14T22:01:32.127Z,4.75
2023-03-14T22:04:00.443Z,4.25
2023-03-14T22:06:29.134Z,7.50
2023-03-14T22:08:57.023Z,5.70
2023-03-14T22:11:31.304Z,4.95
2023-03-14T22:13:59.116Z,9.88
2023-03-14T22:16:36.149Z,5.72
2023-03-14T22:19:07.015Z,6.67
2023-03-14T22:21:42.879Z,9.70
2023-03-14T22:24:10.771Z,12.55
2023-03-14T22:26:45.105Z,6.40
2023-03-14T22:29:13.221Z,7.35
2023-03-14T22:31:44.063Z,6.50
2023-03-14T22:34:12.624Z,8.52
2023-03-14T22:36:41.212Z,6.40
2023-03-14T22:39:21.832Z,11.05
2023-03-14T22:41:57.021Z,9.00
2023-03-14T22:44:24.953Z,3.67
2023-03-14T22:46:55.632Z,8.88
2023-03-14T22:49:23.340Z,10.93
2023-03-14T22:51:59.981Z,10.20
2023-03-14T22:54:30.146Z,13.02
2023-03-14T22:57:00.611Z,10.73
2023-03-14T22:59:28.607Z,11.82
2023-03-14T23:01:56.162Z,11.70
2023-03-14T23:04:27.001Z,12.57
2023-03-14T23:06:54.605Z,9.18
2023-03-14T23:09:25.241Z,7.68
2023-03-14T23:11:53.713Z,11.93
2023-03-14T23:14:23.179Z,12.45
2023-03-14T23:16:51.492Z,9.07
2023-03-14T23:19:25.844Z,13.10
2023-03-14T23:22:02.113Z,10.68
2023-03-14T23:24:40.073Z,9.73
2023-03-14T23:27:07.637Z,17.13
2023-03-14T23:29:35.278Z,12.38
2023-03-14T23:32:02.995Z,7.95
2023-03-14T23:34:30.508Z,11.02
2023-03-14T23:36:58.163Z,13.82
2023-03-14T23:39:25.788Z,11.88
2023-03-14T23:41:53.434Z,9.63
2023-03-14T23:44:23.073Z,14.15
2023-03-14T23:46:51.637Z,12.13
2023-03-14T23:49:22.183Z,10.27
2023-03-14T23:51:49.825Z,13.45
2023-03-14T23:54:17.404Z,14.63
2023-03-14T23:56:45.166Z,15.90
2023-03-14T23:59:13.101Z,12.90
